createdAt,value
2017-09-25T00:00:48.656Z,90.60
2017-09-25T00:03:16.417Z,90.60
2017-09-25T00:05:44.141Z,90.70
2017-09-25T00:08:11.837Z,90.30
2017-09-25T00:10:39.404Z,90.20
2017-09-25T00:13:07.000Z,90.10
2017-09-25T00:15:34.558Z,90.00
2017-09-25T00:18:02.141Z,90.00
2017-09-25T00:20:29.680Z,90.00
2017-09-25T00:22:58.011Z,89.80
2017-09-25T00:25:25.842Z,89.80
2017-09-25T00:27:53.515Z,90.00
2017-09-25T00:30:21.176Z,90.00
2017-09-25T00:32:48.925Z,89.90
2017-09-25T00:35:17.407Z,89.50
2017-09-25T00:37:45.277Z,89.40
2017-09-25T00:40:12.980Z,89.90
2017-09-25T00:42:40.665Z,89.90
2017-09-25T00:45:08.214Z,90.10
2017-09-25T00:47:35.792Z,90.30
2017-09-25T00:50:03.336Z,90.20
2017-09-25T00:52:42.945Z,90.40
2017-09-25T00:55:23.448Z,90.10
2017-09-25T00:57:51.147Z,90.10
2017-09-25T01:00:30.842Z,90.00
2017-09-25T01:03:11.128Z,90.10
2017-09-25T01:05:50.703Z,90.10
2017-09-25T01:08:19.113Z,90.20
2017-09-25T01:10:46.853Z,90.20
2017-09-25T01:13:15.392Z,90.10
2017-09-25T01:15:42.972Z,90.30
2017-09-25T01:18:11.416Z,90.40
2017-09-25T01:20:38.955Z,90.30
2017-09-25T01:23:06.495Z,90.40
2017-09-25T01:25:34.073Z,90.20
2017-09-25T01:28:01.607Z,90.20
2017-09-25T01:30:29.170Z,90.20
2017-09-25T01:32:56.697Z,90.20
2017-09-25T01:35:24.474Z,90.20
2017-09-25T01:37:52.112Z,90.20
2017-09-25T01:40:19.796Z,90.40
2017-09-25T01:42:47.770Z,90.40
2017-09-25T01:45:15.476Z,90.40
2017-09-25T01:47:43.060Z,90.60
2017-09-25T01:50:10.670Z,90.80
2017-09-25T01:52:38.212Z,90.90
2017-09-25T01:55:05.788Z,90.70
2017-09-25T01:57:34.082Z,90.70
2017-09-25T02:00:01.660Z,90.70
2017-09-25T02:02:29.202Z,91.00
2017-09-25T02:04:56.774Z,90.80
2017-09-25T02:07:24.331Z,90.90
2017-09-25T02:09:52.703Z,91.00
2017-09-25T02:12:20.367Z,90.80
2017-09-25T02:14:48.020Z,90.80
2017-09-25T02:17:15.824Z,90.80
2017-09-25T02:19:43.376Z,90.80
2017-09-25T02:22:10.994Z,91.00
2017-09-25T02:24:38.522Z,90.90
2017-09-25T02:27:06.086Z,90.90
2017-09-25T02:29:33.614Z,91.00
2017-09-25T02:32:01.182Z,91.00
2017-09-25T02:34:28.759Z,91.20
2017-09-25T02:36:57.087Z,91.10
2017-09-25T02:39:24.643Z,91.10
2017-09-25T02:41:52.270Z,91.00
2017-09-25T02:44:19.837Z,90.90
2017-09-25T02:46:47.487Z,90.70
2017-09-25T02:49:15.078Z,91.00
2017-09-25T02:51:42.651Z,91.10
2017-09-25T02:54:10.234Z,91.00
2017-09-25T02:56:37.767Z,90.90
2017-09-25T02:59:05.348Z,90.90
2017-09-25T03:01:33.642Z,91.10
2017-09-25T03:04:01.407Z,91.40
2017-09-25T03:06:28.964Z,91.30
2017-09-25T03:08:56.527Z,91.20
2017-09-25T03:11:24.839Z,91.30
2017-09-25T03:13:52.440Z,91.30
2017-09-25T03:16:20.776Z,91.30
2017-09-25T03:18:48.391Z,91.80
2017-09-25T03:21:16.044Z,91.60
2017-09-25T03:23:43.632Z,91.90
2017-09-25T03:26:11.259Z,92.10
2017-09-25T03:28:38.856Z,92.10
2017-09-25T03:31:07.176Z,92.10
2017-09-25T03:33:34.715Z,92.00
2017-09-25T03:36:02.481Z,92.20
2017-09-25T03:38:30.055Z,92.20
2017-09-25T03:40:58.393Z,92.50
2017-09-25T03:43:25.976Z,92.50
2017-09-25T03:45:53.570Z,92.50
2017-09-25T03:48:21.205Z,92.50
2017-09-25T03:50:48.793Z,92.90
2017-09-25T03:53:16.504Z,92.10
2017-09-25T03:55:44.191Z,92.40
2017-09-25T03:58:12.685Z,92.70
2017-09-25T04:00:40.214Z,92.70
2017-09-25T04:03:09.219Z,92.50
2017-09-25T04:05:36.885Z,92.50
2017-09-25T04:08:04.429Z,92.60
2017-09-25T04:10:32.017Z,92.70
2017-09-25T04:13:00.341Z,92.50
2017-09-25T04:15:27.940Z,92.50
2017-09-25T04:17:56.256Z,92.30
2017-09-25T04:20:24.631Z,92.30
2017-09-25T04:22:52.224Z,92.20
2017-09-25T04:25:19.888Z,92.20
2017-09-25T04:27:47.779Z,92.30
2017-09-25T04:30:15.473Z,92.10
2017-09-25T04:32:43.068Z,91.90
2017-09-25T04:35:11.432Z,92.40
2017-09-25T04:37:38.967Z,92.10
2017-09-25T04:40:06.617Z,92.00
2017-09-25T04:42:34.193Z,92.10
2017-09-25T04:45:02.532Z,92.30
2017-09-25T04:47:30.071Z,92.20
2017-09-25T04:49:58.461Z,92.20
2017-09-25T04:52:26.088Z,92.40
2017-09-25T04:54:54.321Z,91.90
2017-09-25T04:57:22.148Z,91.80
2017-09-25T04:59:49.821Z,91.90
2017-09-25T05:02:17.600Z,92.00
2017-09-25T05:04:45.454Z,92.00
2017-09-25T05:07:13.037Z,92.00
2017-09-25T05:09:40.619Z,92.10
2017-09-25T05:12:08.152Z,92.20
2017-09-25T05:14:35.732Z,92.20
2017-09-25T05:17:03.268Z,91.90
2017-09-25T05:19:30.865Z,92.00
2017-09-25T05:21:58.403Z,92.10
2017-09-25T05:24:26.696Z,92.20
2017-09-25T05:26:54.328Z,92.20
2017-09-25T05:29:21.935Z,92.30
2017-09-25T05:31:49.502Z,92.40
2017-09-25T05:34:17.308Z,92.40
2017-09-25T05:36:45.747Z,92.60
2017-09-25T05:39:13.424Z,92.50
2017-09-25T05:41:40.994Z,92.60
2017-09-25T05:44:09.343Z,92.70
2017-09-25T05:46:36.922Z,92.70
2017-09-25T05:49:04.470Z,92.60
2017-09-25T05:51:32.795Z,92.60
2017-09-25T05:54:00.357Z,92.60
2017-09-25T05:56:27.915Z,92.50
2017-09-25T05:58:57.180Z,92.60
2017-09-25T06:01:24.747Z,92.50
2017-09-25T06:03:53.104Z,93.20
2017-09-25T06:06:21.488Z,93.20
2017-09-25T06:08:49.032Z,93.10
2017-09-25T06:11:16.830Z,94.30
2017-09-25T06:13:44.557Z,93.80
2017-09-25T06:16:12.228Z,93.60
2017-09-25T06:18:39.848Z,93.30
2017-09-25T06:21:07.442Z,92.90
2017-09-25T06:23:34.967Z,92.70
2017-09-25T06:26:02.560Z,92.70
2017-09-25T06:28:30.129Z,92.90
2017-09-25T06:30:57.724Z,92.40
2017-09-25T06:33:26.055Z,92.70
2017-09-25T06:35:53.771Z,92.70
2017-09-25T06:38:21.455Z,92.60
2017-09-25T06:40:49.166Z,92.70
2017-09-25T06:43:16.998Z,92.60
2017-09-25T06:45:44.874Z,92.50
2017-09-25T06:48:13.052Z,92.00
2017-09-25T06:50:40.641Z,91.90
2017-09-25T06:53:09.531Z,91.60
2017-09-25T06:55:37.892Z,91.50
2017-09-25T06:58:05.494Z,91.50
2017-09-25T07:00:33.058Z,91.40
2017-09-25T07:03:00.583Z,91.40
2017-09-25T07:05:28.155Z,91.40
2017-09-25T07:07:55.700Z,91.40
2017-09-25T07:10:23.294Z,91.20
2017-09-25T07:12:50.898Z,91.30
2017-09-25T07:15:18.519Z,91.10
2017-09-25T07:17:46.072Z,90.70
2017-09-25T07:20:14.498Z,90.60
2017-09-25T07:22:42.066Z,90.60
2017-09-25T07:25:09.636Z,90.60
2017-09-25T07:27:37.460Z,90.30
2017-09-25T07:30:05.040Z,90.30
2017-09-25T07:32:32.615Z,90.40
2017-09-25T07:35:00.974Z,90.00
2017-09-25T07:37:29.316Z,90.10
2017-09-25T07:39:56.847Z,90.00
2017-09-25T07:42:24.420Z,89.90
2017-09-25T07:44:52.739Z,89.10
2017-09-25T07:47:20.336Z,88.90
2017-09-25T07:49:47.928Z,88.20
2017-09-25T07:52:15.530Z,87.90
2017-09-25T07:54:43.100Z,86.80
2017-09-25T07:57:10.708Z,87.40
2017-09-25T07:59:39.029Z,86.80
2017-09-25T08:02:06.640Z,86.60
2017-09-25T08:04:34.232Z,86.60
2017-09-25T08:07:01.774Z,86.70
2017-09-25T08:09:29.309Z,86.90
2017-09-25T08:11:56.894Z,87.00
2017-09-25T08:14:24.468Z,87.00
2017-09-25T08:16:52.074Z,86.40
2017-09-25T08:19:19.679Z,85.20
2017-09-25T08:21:47.281Z,85.80
2017-09-25T08:24:14.985Z,85.20
2017-09-25T08:26:42.566Z,85.00
2017-09-25T08:29:10.124Z,83.80
2017-09-25T08:31:37.793Z,84.00
2017-09-25T08:34:05.329Z,84.40
2017-09-25T08:36:32.917Z,84.10
2017-09-25T08:39:00.446Z,83.80
2017-09-25T08:41:28.020Z,83.80
2017-09-25T08:43:56.319Z,83.90
2017-09-25T08:46:23.917Z,83.80
2017-09-25T08:48:52.253Z,83.20
2017-09-25T08:51:19.847Z,83.00
2017-09-25T08:53:47.542Z,83.40
2017-09-25T08:56:15.151Z,82.50
2017-09-25T08:58:42.709Z,82.60
2017-09-25T09:01:10.321Z,82.20
2017-09-25T09:03:38.647Z,81.60
2017-09-25T09:06:06.289Z,81.50
2017-09-25T09:08:49.493Z,81.80
2017-09-25T09:11:17.169Z,82.20
2017-09-25T09:13:44.796Z,81.80
2017-09-25T09:16:12.375Z,81.60
2017-09-25T09:18:40.692Z,80.50
2017-09-25T09:21:08.277Z,79.50
2017-09-25T09:23:35.824Z,81.20
2017-09-25T09:26:03.417Z,81.50
2017-09-25T09:28:30.980Z,80.30
2017-09-25T09:30:58.627Z,79.80
2017-09-25T09:33:26.180Z,79.40
2017-09-25T09:35:53.770Z,80.10
2017-09-25T09:38:22.089Z,77.80
2017-09-25T09:40:49.703Z,77.80
2017-09-25T09:43:17.294Z,79.10
2017-09-25T09:45:44.905Z,78.70
2017-09-25T09:48:12.443Z,80.10
2017-09-25T09:50:40.036Z,81.20
2017-09-25T09:53:08.367Z,81.50
2017-09-25T09:55:35.968Z,81.50
2017-09-25T09:58:03.553Z,80.30
2017-09-25T10:00:31.133Z,80.70
2017-09-25T10:02:58.679Z,80.80
2017-09-25T10:05:26.298Z,79.80
2017-09-25T10:07:53.852Z,80.00
2017-09-25T10:10:21.445Z,79.50
2017-09-25T10:12:49.852Z,78.90
2017-09-25T10:15:17.471Z,78.70
2017-09-25T10:17:45.051Z,78.50
2017-09-25T10:20:12.673Z,78.90
2017-09-25T10:22:40.243Z,79.00
2017-09-25T10:25:07.852Z,79.40
2017-09-25T10:27:35.395Z,78.30
2017-09-25T10:30:03.773Z,78.90
2017-09-25T10:32:31.299Z,78.90
2017-09-25T10:34:58.882Z,78.10
2017-09-25T10:37:26.443Z,77.90
2017-09-25T10:39:54.104Z,76.90
2017-09-25T10:42:21.674Z,76.20
2017-09-25T10:44:50.048Z,73.80
2017-09-25T10:47:17.646Z,73.70
2017-09-25T10:49:45.260Z,73.90
2017-09-25T10:52:12.825Z,73.50
2017-09-25T10:54:40.399Z,72.50
2017-09-25T10:57:07.946Z,71.50
2017-09-25T10:59:35.515Z,71.50
2017-09-25T11:02:03.808Z,71.00
2017-09-25T11:04:31.422Z,70.90
2017-09-25T11:06:59.765Z,70.30
2017-09-25T11:09:27.304Z,70.30
2017-09-25T11:11:54.899Z,70.30
2017-09-25T11:14:22.496Z,68.70
2017-09-25T11:16:50.083Z,67.90
2017-09-25T11:19:17.677Z,67.10
2017-09-25T11:21:45.305Z,67.70
2017-09-25T11:24:12.916Z,66.40
2017-09-25T11:26:41.256Z,65.80
2017-09-25T11:29:08.815Z,65.70
2017-09-25T11:31:37.201Z,66.20
2017-09-25T11:34:04.731Z,66.10
2017-09-25T11:36:33.084Z,64.50
2017-09-25T11:39:01.387Z,64.50
2017-09-25T11:41:28.967Z,64.30
2017-09-25T11:43:56.597Z,62.50
2017-09-25T11:46:24.332Z,63.00
2017-09-25T11:48:51.903Z,63.60
2017-09-25T11:51:19.497Z,63.20
2017-09-25T11:53:47.047Z,63.60
2017-09-25T11:56:15.648Z,62.90
2017-09-25T11:58:43.227Z,64.00
2017-09-25T12:01:10.826Z,63.40
2017-09-25T12:03:38.423Z,64.30
2017-09-25T12:06:06.788Z,63.70
2017-09-25T12:08:35.114Z,63.20
2017-09-25T12:11:02.711Z,63.10
2017-09-25T12:13:31.013Z,61.90
2017-09-25T12:15:58.597Z,61.80
2017-09-25T12:18:26.143Z,62.30
2017-09-25T12:20:53.737Z,63.50
2017-09-25T12:23:21.287Z,63.50
2017-09-25T12:25:48.897Z,62.70
2017-09-25T12:28:16.530Z,60.40
2017-09-25T12:30:44.991Z,60.20
2017-09-25T12:33:12.547Z,60.00
2017-09-25T12:35:40.146Z,60.50
2017-09-25T12:38:07.720Z,60.10
2017-09-25T12:40:35.319Z,59.90
2017-09-25T12:43:02.897Z,59.20
2017-09-25T12:45:30.485Z,59.90
2017-09-25T12:47:58.784Z,60.60
2017-09-25T12:50:26.516Z,60.60
2017-09-25T12:52:54.075Z,59.90
2017-09-25T12:55:22.533Z,59.50
2017-09-25T12:57:50.096Z,59.40
2017-09-25T13:00:17.755Z,59.00
2017-09-25T13:02:45.353Z,59.40
2017-09-25T13:05:12.961Z,58.90
2017-09-25T13:07:40.581Z,59.60
2017-09-25T13:10:08.135Z,59.20
2017-09-25T13:12:36.471Z,59.00
2017-09-25T13:15:04.065Z,59.00
2017-09-25T13:17:31.640Z,58.10
2017-09-25T13:19:59.963Z,61.10
2017-09-25T13:22:27.532Z,61.00
2017-09-25T13:24:55.083Z,58.50
2017-09-25T13:27:23.455Z,59.10
2017-09-25T13:29:51.799Z,59.90
2017-09-25T13:32:19.497Z,59.90
2017-09-25T13:34:47.355Z,56.50
2017-09-25T13:37:15.213Z,58.90
2017-09-25T13:39:42.788Z,58.30
2017-09-25T13:42:10.382Z,58.50
2017-09-25T13:44:37.952Z,59.00
2017-09-25T13:47:05.527Z,58.60
2017-09-25T13:49:33.087Z,57.50
2017-09-25T13:52:00.668Z,59.60
2017-09-25T13:54:28.223Z,58.70
2017-09-25T13:56:55.812Z,57.80
2017-09-25T14:04:29.231Z,56.30
2017-09-25T14:06:57.620Z,59.70
2017-09-25T14:09:25.223Z,59.20
2017-09-25T14:11:53.687Z,57.90
2017-09-25T14:14:22.082Z,57.70
2017-09-25T14:16:49.737Z,57.70
2017-09-25T14:19:17.386Z,57.60
2017-09-25T14:21:45.071Z,56.80
2017-09-25T14:24:13.491Z,57.00
2017-09-25T14:26:41.164Z,56.90
2017-09-25T14:29:08.777Z,56.30
2017-09-25T14:31:36.507Z,54.80
2017-09-25T14:34:04.910Z,54.30
2017-09-25T14:36:32.584Z,53.60
2017-09-25T14:39:00.180Z,53.70
2017-09-25T14:41:27.799Z,54.60
2017-09-25T14:43:55.438Z,55.60
2017-09-25T14:46:23.103Z,55.90
2017-09-25T14:48:51.467Z,58.50
2017-09-25T14:51:19.869Z,59.50
2017-09-25T14:53:47.540Z,59.50
2017-09-25T14:56:15.207Z,60.90
2017-09-25T14:58:43.690Z,63.80
2017-09-25T15:01:12.055Z,64.60
2017-09-25T15:03:39.703Z,64.60
2017-09-25T15:06:07.305Z,66.20
2017-09-25T15:08:34.949Z,64.50
2017-09-25T15:11:02.539Z,67.40
2017-09-25T15:13:30.194Z,68.30
2017-09-25T15:15:58.549Z,69.10
2017-09-25T15:18:26.189Z,69.00
2017-09-25T15:20:53.784Z,69.20
2017-09-25T15:23:21.464Z,70.30
2017-09-25T15:25:49.112Z,70.00
2017-09-25T15:28:16.790Z,69.90
2017-09-25T15:30:45.158Z,71.40
2017-09-25T15:33:13.589Z,72.00
2017-09-25T15:35:41.955Z,72.40
2017-09-25T15:38:09.579Z,73.20
2017-09-25T15:40:37.217Z,72.40
2017-09-25T15:43:04.839Z,72.60
2017-09-25T15:45:33.206Z,74.10
2017-09-25T15:48:01.595Z,74.30
2017-09-25T15:50:29.262Z,74.20
2017-09-25T15:52:56.879Z,74.00
2017-09-25T15:55:24.481Z,74.60
2017-09-25T15:57:52.128Z,75.50
2017-09-25T16:00:19.767Z,76.60
2017-09-25T16:02:48.456Z,78.00
2017-09-25T16:05:16.132Z,78.00
2017-09-25T16:07:43.776Z,78.40
2017-09-25T16:10:11.371Z,79.60
2017-09-25T16:12:39.012Z,79.70
2017-09-25T16:15:06.622Z,79.10
2017-09-25T16:17:34.247Z,79.20
2017-09-25T16:20:02.628Z,80.70
2017-09-25T16:22:30.260Z,80.60
2017-09-25T16:24:58.623Z,81.50
2017-09-25T16:27:27.012Z,81.40
2017-09-25T16:29:54.644Z,81.40
2017-09-25T16:32:23.088Z,81.20
2017-09-25T16:34:51.481Z,81.60
2017-09-25T16:37:19.243Z,81.60
2017-09-25T16:39:46.975Z,81.70
2017-09-25T16:42:14.799Z,82.10
2017-09-25T16:44:43.194Z,83.20
2017-09-25T16:47:10.830Z,83.10
2017-09-25T16:49:39.207Z,83.40
2017-09-25T16:52:06.829Z,83.40
2017-09-25T16:54:34.419Z,83.20
2017-09-25T16:57:02.041Z,83.40
2017-09-25T16:59:29.639Z,83.30
2017-09-25T17:01:57.276Z,83.80
2017-09-25T17:04:24.914Z,84.80
2017-09-25T17:06:52.585Z,84.50
2017-09-25T17:09:20.267Z,84.70
2017-09-25T17:11:47.985Z,85.10
2017-09-25T17:14:15.962Z,85.40
2017-09-25T17:16:44.422Z,86.30
2017-09-25T17:19:12.789Z,86.60
2017-09-25T17:21:40.427Z,86.40
2017-09-25T17:24:08.018Z,86.90
2017-09-25T17:26:35.669Z,87.30
2017-09-25T17:29:03.254Z,87.60
2017-09-25T17:31:30.926Z,88.10
2017-09-25T17:33:59.292Z,88.50
2017-09-25T17:36:26.933Z,88.40
2017-09-25T17:38:54.670Z,88.40
2017-09-25T17:41:22.326Z,88.50
2017-09-25T17:43:50.784Z,88.40
2017-09-25T17:46:18.535Z,88.30
2017-09-25T17:48:46.155Z,89.10
2017-09-25T17:51:13.818Z,89.30
2017-09-25T17:53:42.192Z,89.00
2017-09-25T17:56:09.852Z,89.00
2017-09-25T17:58:37.447Z,88.50
2017-09-25T18:01:05.081Z,88.50
2017-09-25T18:03:33.177Z,88.80
2017-09-25T18:06:00.828Z,88.50
2017-09-25T18:08:28.420Z,88.00
2017-09-25T18:10:56.066Z,88.20
2017-09-25T18:13:23.676Z,88.50
2017-09-25T18:15:52.134Z,88.80
2017-09-25T18:18:19.877Z,88.80
2017-09-25T18:20:47.822Z,89.10
2017-09-25T18:23:15.482Z,89.10
2017-09-25T18:25:43.127Z,89.30
2017-09-25T18:28:10.741Z,89.60
2017-09-25T18:30:38.388Z,89.60
2017-09-25T18:33:06.013Z,89.40
2017-09-25T18:35:34.374Z,89.30
2017-09-25T18:38:02.780Z,89.20
2017-09-25T18:40:30.431Z,89.20
2017-09-25T18:42:58.040Z,89.60
2017-09-25T18:45:25.676Z,89.10
2017-09-25T18:47:54.037Z,88.80
2017-09-25T18:50:22.469Z,89.30
2017-09-25T18:52:50.120Z,89.30
2017-09-25T18:55:17.829Z,89.80
2017-09-25T18:57:45.534Z,90.10
2017-09-25T19:00:13.191Z,90.10
2017-09-25T19:02:41.672Z,90.20
2017-09-25T19:05:10.047Z,90.30
2017-09-25T19:07:37.705Z,90.20
2017-09-25T19:10:05.349Z,90.20
2017-09-25T19:12:33.057Z,90.50
2017-09-25T19:15:00.653Z,90.50
2017-09-25T19:17:28.299Z,90.60
2017-09-25T19:19:55.908Z,90.50
2017-09-25T19:22:24.321Z,90.70
2017-09-25T19:24:51.978Z,90.70
2017-09-25T19:27:19.651Z,90.60
2017-09-25T19:29:47.637Z,90.80
2017-09-25T19:32:15.381Z,90.50
2017-09-25T19:34:43.016Z,90.50
2017-09-25T19:37:11.434Z,90.70
2017-09-25T19:39:39.034Z,90.70
2017-09-25T19:42:07.501Z,90.70
2017-09-25T19:44:36.006Z,90.60
2017-09-25T19:47:03.686Z,90.60
2017-09-25T19:49:37.002Z,90.70
2017-09-25T19:52:04.654Z,90.60
2017-09-25T19:54:33.202Z,90.70
2017-09-25T19:57:07.483Z,90.60
2017-09-25T19:59:35.194Z,90.60
2017-09-25T20:02:02.882Z,90.60
2017-09-25T20:04:30.535Z,90.70
2017-09-25T20:06:58.276Z,90.70
2017-09-25T20:09:26.629Z,90.70
2017-09-25T20:11:54.331Z,90.80
2017-09-25T20:14:22.908Z,91.20
2017-09-25T20:19:54.124Z,91.50
2017-09-25T20:22:22.539Z,91.80
2017-09-25T20:24:50.173Z,91.80
2017-09-25T20:27:18.189Z,91.70
2017-09-25T20:29:46.154Z,91.60
2017-09-25T20:32:13.840Z,91.30
2017-09-25T20:34:41.439Z,91.50
2017-09-25T20:37:09.848Z,91.60
2017-09-25T20:39:37.456Z,91.60
2017-09-25T20:42:20.018Z,92.00
2017-09-25T20:44:47.683Z,91.80
2017-09-25T20:47:16.367Z,91.90
2017-09-25T20:49:44.744Z,91.80
2017-09-25T20:52:12.421Z,91.80
2017-09-25T20:54:40.320Z,91.80
2017-09-25T20:57:07.958Z,91.80
2017-09-25T20:59:35.594Z,91.70
2017-09-25T21:02:03.319Z,91.30
2017-09-25T21:04:30.937Z,91.20
2017-09-25T21:06:58.572Z,91.60
2017-09-25T21:09:26.501Z,92.00
2017-09-25T21:11:54.214Z,92.00
2017-09-25T21:14:21.881Z,92.20
2017-09-25T21:16:49.556Z,92.10
2017-09-25T21:19:18.077Z,91.90
2017-09-25T21:21:45.664Z,91.80
2017-09-25T21:24:14.082Z,91.60
2017-09-25T21:26:44.160Z,91.60
2017-09-25T21:29:11.782Z,91.50
2017-09-25T21:31:40.238Z,92.00
2017-09-25T21:34:07.912Z,91.60
2017-09-25T21:36:35.590Z,91.60
2017-09-25T21:39:03.270Z,91.70
2017-09-25T21:41:30.898Z,92.00
2017-09-25T21:43:58.488Z,92.20
2017-09-25T21:46:26.950Z,92.40
2017-09-25T21:48:54.580Z,92.30
2017-09-25T21:51:22.258Z,92.20
2017-09-25T21:53:50.676Z,92.20
2017-09-25T21:56:18.353Z,92.20
2017-09-25T21:58:47.638Z,92.30
2017-09-25T22:01:16.039Z,92.80
2017-09-25T22:03:43.734Z,92.40
2017-09-25T22:06:11.348Z,92.60
2017-09-25T22:08:38.972Z,92.30
2017-09-25T22:11:06.593Z,92.20
2017-09-25T22:13:34.220Z,91.70
2017-09-25T22:16:01.811Z,91.20
2017-09-25T22:18:29.402Z,91.00
2017-09-25T22:20:57.025Z,90.80
2017-09-25T22:23:24.654Z,90.70
2017-09-25T22:25:52.306Z,90.90
2017-09-25T22:28:19.930Z,90.70
2017-09-25T22:30:48.338Z,90.40
2017-09-25T22:33:15.989Z,90.40
2017-09-25T22:35:45.731Z,90.00
2017-09-25T22:38:14.112Z,90.20
2017-09-25T22:40:41.787Z,90.20
2017-09-25T22:46:12.092Z,90.50
2017-09-25T22:48:39.699Z,90.50
2017-09-25T22:51:07.297Z,90.70
2017-09-25T22:53:34.943Z,90.90
2017-09-25T22:56:02.598Z,91.10
2017-09-25T22:58:30.289Z,91.20
2017-09-25T23:00:58.690Z,90.90
2017-09-25T23:03:26.426Z,90.90
2017-09-25T23:05:54.895Z,90.40
2017-09-25T23:08:22.605Z,90.30
2017-09-25T23:10:50.611Z,90.10
2017-09-25T23:13:18.388Z,90.00
2017-09-25T23:15:46.040Z,90.40
2017-09-25T23:18:13.691Z,90.40
2017-09-25T23:20:41.287Z,90.40
2017-09-25T23:23:08.886Z,89.80
2017-09-25T23:25:36.496Z,90.00
2017-09-25T23:28:04.084Z,90.60
2017-09-25T23:30:52.530Z,90.80
2017-09-25T23:33:20.558Z,90.60
2017-09-25T23:35:49.350Z,90.60
2017-09-25T23:38:17.572Z,90.80
2017-09-25T23:40:45.492Z,91.70
2017-09-25T23:43:13.086Z,92.20
2017-09-25T23:45:40.730Z,92.20
2017-09-25T23:48:09.122Z,91.30
2017-09-25T23:50:36.698Z,91.30
2017-09-25T23:53:04.315Z,91.10
2017-09-25T23:55:31.926Z,91.40
2017-09-25T23:57:59.540Z,91.40
